Latest Weather Observations for Alva Beach

IDQ60801

Issued at 10:35 am EST Sunday 20 April 2014 (issued every 30 minutes, with the page automatically refreshed every 10 minutes)

About weather observations | Map of weather stations | Latest weather observations for QLD | Other Formats
Station Details ID: 033295 Name: ALVA BEACH Lat: -19.46 Lon: 147.48 Height: 7.5 m
Data from the previous 72 hours. | See also: Recent months at Alva Beach
Date/Time
EST
Temp
°C
App
Temp
°C
Dew
Point
Rel
Hum
%
Delta-T
°C
Wind Press
QNH
hPa
Press
MSL
hPa
Rain
since 9 am
mm
Dir
 
Spd
km/h
Gust
km/h
Spd
kts
Gust
kts
20/10:30am 26.0 25.7 16.5 55 5.9 E 13 20 7 11 1016.2 - 0.0
20/10:00am 25.7 23.7 13.9 48 7.0 E 17 24 9 13 1016.3 - 0.0
20/09:30am 25.4 24.3 14.2 50 6.6 E 13 20 7 11 1016.4 - 0.0
20/09:00am 25.3 24.1 15.0 53 6.2 E 15 19 8 10 1016.1 1016.1 0.0
20/08:30am 24.8 23.8 14.6 53 6.1 E 13 19 7 10 1015.9 - 0.0
20/08:00am 24.4 23.2 15.1 56 5.6 E 15 20 8 11 1015.6 - 0.0
20/07:30am 23.6 22.5 15.4 60 4.9 E 15 20 8 11 1015.4 - 0.0
20/07:00am 23.0 22.3 15.3 62 4.6 E 13 19 7 10 1015.1 - 0.0
20/06:30am 22.6 21.4 15.0 62 4.5 E 15 20 8 11 1014.8 - 0.0
20/06:00am 22.7 21.5 15.0 61 4.6 E 15 20 8 11 1014.5 1014.5 0.0
20/05:30am 22.9 21.2 14.7 60 4.9 E 17 24 9 13 1014.2 - 0.0
20/05:00am 22.9 20.9 15.0 61 4.7 E 19 24 10 13 1014.0 - 0.0
20/04:30am 22.9 21.6 14.7 60 4.9 E 15 20 8 11 1013.9 - 0.0
20/04:00am 23.0 21.5 14.3 58 5.1 E 15 22 8 12 1013.8 - 0.0
20/03:30am 23.0 21.8 15.1 61 4.7 E 15 20 8 11 1013.9 - 0.0
20/03:00am 23.0 22.2 15.1 61 4.7 E 13 19 7 10 1013.9 1013.9 0.0
20/02:30am 23.1 21.4 14.7 59 5.0 ENE 17 20 9 11 1014.0 - 0.0
20/02:00am 23.1 21.6 15.2 61 4.7 ENE 17 24 9 13 1014.1 - 0.0
20/01:30am 23.2 21.3 14.2 57 5.3 ENE 17 20 9 11 1014.3 - 0.0
20/01:00am 23.5 21.4 15.3 60 4.9 ENE 20 24 11 13 1014.5 - 0.0
20/12:30am 23.5 21.1 15.3 60 4.9 ENE 22 26 12 14 1014.8 - 0.0
20/12:00am 23.6 21.7 15.1 59 5.1 E 19 26 10 14 1014.9 1014.9 0.0
 
Date/Time
EST
Temp
°C
App
Temp
°C
Dew
Point
Rel
Hum
%
Delta-T
°C
Wind Press
QNH
hPa
Press
MSL
hPa
Rain
since 9 am
mm
Dir
 
Spd
km/h
Gust
km/h
Spd
kts
Gust
kts
19/11:30pm 23.5 21.6 15.8 62 4.6 E 20 28 11 15 1015.1 - 0.0
19/11:00pm 23.5 22.0 15.3 60 4.9 E 17 22 9 12 1015.3 - 0.0
19/10:30pm 23.6 22.2 15.6 61 4.8 E 17 24 9 13 1015.5 - 0.0
19/10:00pm 23.7 22.4 15.7 61 4.8 E 17 24 9 13 1015.7 - 0.0
19/09:30pm 23.6 22.0 15.1 59 5.1 E 17 24 9 13 1015.7 - 0.0
19/09:00pm 23.5 22.1 15.5 60 4.8 E 17 22 9 12 1015.5 1015.5 0.0
19/08:30pm 23.6 22.3 15.9 62 4.7 E 17 20 9 11 1015.3 - 0.0
19/08:00pm 23.6 22.0 15.9 62 4.7 E 19 24 10 13 1015.1 - 0.0
19/07:30pm 23.5 22.4 16.3 64 4.4 ENE 17 22 9 12 1014.7 - 0.0
19/07:00pm 23.6 22.0 16.4 64 4.4 ENE 20 24 11 13 1014.3 - 0.0
19/06:30pm 23.7 22.1 16.0 62 4.7 ENE 19 24 10 13 1014.2 - 0.0
19/06:00pm 23.9 22.3 15.9 61 4.8 ENE 19 24 10 13 1014.0 1014.0 0.0
19/05:30pm 24.2 22.4 15.9 59 5.0 ENE 20 26 11 14 1013.8 - 0.0
19/05:00pm 24.4 22.6 15.9 59 5.2 ENE 20 24 11 13 1013.5 - 0.0
19/04:30pm 25.2 23.2 14.9 52 6.2 ENE 19 26 10 14 1013.6 - 0.0
19/04:00pm 25.4 23.6 15.4 54 6.0 NE 19 22 10 12 1013.5 - 0.0
19/03:30pm 25.9 24.1 15.6 53 6.3 ENE 19 24 10 13 1013.6 - 0.0
19/03:00pm 26.3 23.9 15.4 51 6.6 ENE 22 26 12 14 1013.6 1013.6 0.0
19/02:30pm 26.4 24.5 15.8 52 6.5 ENE 20 24 11 13 1013.9 - 0.0
19/02:00pm 26.6 25.2 16.5 54 6.2 ENE 19 24 10 13 1014.1 - 0.0
19/01:30pm 26.3 24.4 15.7 52 6.5 ENE 20 24 11 13 1014.2 - 0.0
19/01:00pm 26.5 25.1 15.5 50 6.7 ENE 17 20 9 11 1014.7 - 0.0
19/12:30pm 26.8 25.5 16.7 54 6.3 ENE 19 22 10 12 1015.0 - 0.0
19/12:00pm 26.3 25.1 16.0 53 6.3 E 17 22 9 12 1015.4 1015.4 0.0
19/11:30am 26.6 25.6 16.5 54 6.2 E 17 22 9 12 1015.8 - 0.0
19/11:00am 26.9 25.7 17.1 55 6.1 ENE 19 24 10 13 1016.2 - 0.0
19/10:30am 26.9 25.4 16.8 54 6.3 ENE 20 22 11 12 1016.5 - 0.0
19/10:00am 25.8 24.5 15.8 54 6.1 ENE 17 22 9 12 1016.7 - 0.0
19/09:30am 26.3 24.6 16.3 54 6.2 ENE 20 24 11 13 1016.7 - 0.0
19/09:00am 24.7 23.0 16.2 59 5.2 ENE 20 24 11 13 1016.6 1016.6 0.0
19/08:30am 25.3 24.1 17.0 60 5.1 ENE 19 20 10 11 1016.4 - 0.0
19/08:00am 24.8 23.7 17.3 63 4.7 ENE 19 22 10 12 1016.2 - 0.0
19/07:30am 24.5 23.3 17.5 65 4.4 ENE 20 24 11 13 1015.8 - 0.0
19/07:00am 23.8 22.5 17.3 67 4.0 ENE 20 24 11 13 1015.6 - 0.0
19/06:30am 23.5 22.7 17.9 71 3.5 ENE 19 22 10 12 1015.4 - 0.0
19/06:00am 23.3 22.4 17.7 71 3.5 ENE 19 20 10 11 1015.2 1015.2 0.0
19/05:30am 23.5 22.4 17.7 70 3.6 ENE 20 24 11 13 1015.0 - 0.0
19/05:00am 23.3 22.7 17.5 70 3.6 ENE 17 22 9 12 1014.8 - 0.0
19/04:30am 23.6 22.9 18.3 72 3.3 ENE 19 22 10 12 1014.6 - 0.0
19/04:00am 23.3 22.8 17.7 71 3.5 ENE 17 20 9 11 1014.3 - 0.0
19/03:30am 23.5 23.0 17.7 70 3.6 ENE 17 20 9 11 1014.2 - 0.0
19/03:00am 23.6 22.7 17.8 70 3.6 ENE 19 22 10 12 1014.4 1014.4 0.0
19/02:30am 23.7 23.2 18.6 73 3.2 ENE 19 22 10 12 1014.6 - 0.0
19/02:00am 23.8 23.0 18.0 70 3.6 NE 19 22 10 12 1014.8 - 0.0
19/01:30am 24.1 23.2 18.1 69 3.8 ENE 20 24 11 13 1015.1 - 0.0
19/01:00am 23.8 23.1 18.2 71 3.5 NE 19 24 10 13 1015.4 - 0.0
19/12:30am 24.0 23.2 18.4 71 3.5 NE 20 22 11 12 1015.7 - 0.0
19/12:00am 24.3 23.5 18.5 70 3.7 NE 20 24 11 13 1016.0 1016.0 0.0
 
Date/Time
EST
Temp
°C
App
Temp
°C
Dew
Point
Rel
Hum
%
Delta-T
°C
Wind Press
QNH
hPa
Press
MSL
hPa
Rain
since 9 am
mm
Dir
 
Spd
km/h
Gust
km/h
Spd
kts
Gust
kts
18/11:30pm 24.0 23.4 18.4 71 3.5 NE 19 20 10 11 1016.1 - 0.0
18/11:00pm 23.9 23.1 18.1 70 3.6 NE 19 22 10 12 1016.2 - 0.0
18/10:30pm 24.1 23.2 18.1 69 3.8 ENE 20 24 11 13 1016.4 - 0.0
18/10:00pm 24.1 23.2 18.1 69 3.8 NE 20 22 11 12 1016.4 - 0.0
18/09:30pm 24.1 23.2 18.1 69 3.8 ENE 20 22 11 12 1016.4 - 0.0
18/09:00pm 24.0 23.2 18.4 71 3.5 ENE 20 24 11 13 1016.2 1016.2 0.0
18/08:30pm 23.9 23.0 18.3 71 3.5 ENE 20 24 11 13 1016.1 - 0.0
18/08:00pm 23.7 22.9 17.9 70 3.6 ENE 19 22 10 12 1015.9 - 0.0
18/07:30pm 23.9 22.9 17.9 69 3.8 ENE 20 24 11 13 1015.4 - 0.0
18/07:00pm 23.9 22.9 17.6 68 3.9 ENE 19 20 10 11 1015.0 - 0.0
18/06:30pm 23.9 22.8 17.4 67 4.0 ENE 19 20 10 11 1014.6 - 0.0
18/06:00pm 24.1 22.9 17.4 66 4.2 ENE 20 22 11 12 1014.2 1014.2 0.0
18/05:30pm 24.5 23.1 17.0 63 4.6 ENE 20 24 11 13 1014.1 - 0.0
18/05:00pm 24.8 23.8 16.5 60 5.1 ENE 17 22 9 12 1014.0 - 0.0
18/04:30pm 25.3 23.9 17.0 60 5.1 NE 20 22 11 12 1013.8 - 0.0
18/04:00pm 25.7 24.0 16.3 56 5.8 ENE 20 24 11 13 1013.6 - 0.0
18/03:30pm 26.0 24.8 17.4 59 5.4 ENE 20 26 11 14 1013.2 - 0.0
18/03:00pm 26.1 24.6 17.7 60 5.3 ENE 22 28 12 15 1013.1 1013.1 0.0
18/02:30pm 26.3 24.7 17.4 58 5.6 ENE 22 30 12 16 1013.3 - 0.0
18/02:00pm 25.8 24.1 17.2 59 5.4 ENE 22 28 12 15 1013.6 - 0.0
18/01:30pm 26.4 25.0 18.0 60 5.3 ENE 22 28 12 15 1013.9 - 0.0
18/01:00pm 26.2 25.5 17.3 58 5.6 E 17 22 9 12 1014.2 - 0.0
18/12:30pm 26.3 25.6 18.2 61 5.1 E 19 24 10 13 1014.4 - 0.0
18/12:00pm 26.1 25.7 18.0 61 5.1 E 17 22 9 12 1014.8 1014.8 0.0
18/11:30am 26.0 25.5 17.9 61 5.1 E 17 22 9 12 1015.1 - 0.0
18/11:00am 26.6 25.7 17.7 58 5.6 E 19 26 10 14 1015.6 - 0.0
18/10:30am 25.8 24.7 17.2 59 5.4 E 19 24 10 13 1015.9 - 0.0
18/10:00am 26.4 27.6 19.8 67 4.3 ESE 13 22 7 12 1015.9 - 0.0
18/09:30am 25.8 25.4 18.0 62 4.9 E 17 22 9 12 1016.0 - 0.0
18/09:00am 25.6 24.9 18.3 64 4.6 E 19 26 10 14 1015.9 1015.9 0.0
18/08:30am 24.4 24.7 18.8 71 3.6 E 15 22 8 12 1015.7 - 0.0
18/08:00am 25.0 24.8 18.4 66 4.2 E 17 22 9 12 1015.6 - 0.0
18/07:30am 24.3 24.3 18.2 68 3.8 E 15 19 8 10 1015.4 - 0.0
18/07:00am 21.3 22.9 17.9 81 2.1 SE 6 7 3 4 1015.4 - 0.0
18/06:30am 23.3 23.8 18.4 74 3.1 E 13 19 7 10 1015.1 - 0.0
18/06:00am 23.5 23.5 18.2 72 3.3 E 15 24 8 13 1014.8 1014.8 0.0
18/05:30am 23.5 23.7 18.6 74 3.1 E 15 19 8 10 1014.4 - 0.0
18/05:00am 23.3 24.0 18.8 76 2.8 E 13 17 7 9 1014.2 - 0.0
18/04:30am 23.3 23.8 18.4 74 3.1 E 13 17 7 9 1014.2 - 0.0
18/04:00am 23.5 24.2 18.8 75 3.0 E 13 17 7 9 1014.2 - 0.0
18/03:30am 23.4 23.9 18.3 73 3.2 E 13 17 7 9 1014.1 - 0.0
18/03:00am 23.5 24.0 18.4 73 3.2 E 13 20 7 11 1014.2 1014.2 0.0
18/02:30am 23.5 24.2 18.8 75 3.0 E 13 19 7 10 1014.5 - 0.0
18/02:00am 23.6 23.2 18.0 71 3.5 E 17 22 9 12 1014.6 - 0.0
18/01:30am 23.6 23.2 18.9 75 3.0 E 19 24 10 13 1014.8 - 0.0
18/01:00am 23.7 23.2 18.6 73 3.2 E 19 22 10 12 1015.3 - 0.0
18/12:30am 23.8 23.6 18.4 72 3.4 E 17 24 9 13 1015.7 - 0.0
18/12:00am 23.9 23.1 18.5 72 3.4 ENE 20 26 11 14 1016.0 1016.0 0.0
 
Date/Time
EST
Temp
°C
App
Temp
°C
Dew
Point
Rel
Hum
%
Delta-T
°C
Wind Press
QNH
hPa
Press
MSL
hPa
Rain
since 9 am
mm
Dir
 
Spd
km/h
Gust
km/h
Spd
kts
Gust
kts
17/11:30pm 24.0 23.2 18.4 71 3.5 ENE 20 26 11 14 1016.2 - 0.0
17/11:00pm 23.9 23.2 18.3 71 3.5 ENE 19 26 10 14 1016.4 - 0.0
17/10:30pm 24.0 23.1 18.2 70 3.6 ENE 20 26 11 14 1016.4 - 0.0
17/10:00pm 24.1 23.4 18.7 72 3.4 E 20 26 11 14 1016.4 - 0.0
17/09:30pm 24.3 24.0 19.1 73 3.3 E 19 24 10 13 1016.3 - 0.0
17/09:00pm 24.1 23.0 18.7 72 3.4 ENE 22 30 12 16 1016.2 1016.2 0.0
17/08:30pm 24.2 23.7 19.1 73 3.3 E 20 26 11 14 1016.1 - 0.0
17/08:00pm 24.1 22.9 18.5 71 3.5 ENE 22 28 12 15 1015.7 - 0.0
17/07:30pm 24.0 23.2 18.4 71 3.5 E 20 28 11 15 1015.2 - 0.0
17/07:00pm 24.0 23.4 18.9 73 3.2 E 20 24 11 13 1014.8 - 0.0
17/06:30pm 24.1 24.2 19.2 74 3.1 E 17 24 9 13 1014.4 - 0.0
17/06:00pm 24.3 23.9 18.9 72 3.4 E 19 22 10 12 1014.2 1014.2 0.0
17/05:30pm 24.6 24.1 19.0 71 3.6 ENE 20 26 11 14 1013.9 - 0.0
17/05:00pm 24.9 25.0 18.3 66 4.2 E 15 20 8 11 1013.8 - 0.0
17/04:30pm 25.4 25.0 18.1 64 4.6 E 17 22 9 12 1013.6 - 0.0
17/04:00pm 25.6 25.3 18.3 64 4.6 E 17 22 9 12 1013.5 - 0.0
17/03:30pm 25.9 25.4 18.6 64 4.6 E 19 24 10 13 1013.6 - 0.0
17/03:00pm 26.2 25.8 18.1 61 5.1 E 17 24 9 13 1013.7 1013.7 0.0
17/02:30pm 26.5 26.8 19.6 66 4.5 E 17 22 9 12 1014.0 - 0.0
17/02:00pm 26.0 25.5 17.9 61 5.1 E 17 22 9 12 1014.2 - 0.0
17/01:30pm 26.5 26.5 18.9 63 4.9 E 17 22 9 12 1014.4 - 0.0
17/01:00pm 26.3 26.3 18.9 63 4.7 E 17 24 9 13 1014.8 - 0.0
17/12:30pm 26.4 27.6 20.0 68 4.2 ESE 13 19 7 10 1015.2 - 0.0
17/12:00pm 25.2 26.5 19.3 70 3.8 ESE 11 19 6 10 1015.7 1015.7 0.0
17/11:30am 25.6 26.3 18.0 63 4.8 ESE 11 19 6 10 1016.1 - 0.0
17/11:00am 26.9 27.8 18.5 60 5.4 ESE 11 17 6 9 1016.4 - 0.0

Other Formats:

Comma delimited format used in spreadsheet applications
http://www.bom.gov.au/fwo/IDQ60801/IDQ60801.95296.axf

JavaScript Object Notation format (JSON) in row-major order
http://www.bom.gov.au/fwo/IDQ60801/IDQ60801.95296.json